Time;durP1;ratioP1;P1;durP2;ratioP2;P2;SDS_P1;SDS_P2;PMS_P1;PMS_P2;Temp;Humidity;BMP_temperature;BMP_pressure;BME280_temperature;BME280_humidity;BME280_pressure;Samples;Min_cycle;Max_cycle;Signal;HPM_P1;HPM_P2
2022/01/07 00:01:45;;;;;;;;;;;-0.70;99.90;;;;;;4964210;28;19929;-82
2022/01/07 00:04:12;;;;;;;;;;;-0.70;99.90;;;;;;4958103;28;20673;-82
2022/01/07 00:06:39;;;;;;;;;;;-0.70;99.90;;;;;;4964459;28;19940;-82
2022/01/07 00:09:06;;;;;;;;;;;-0.70;99.90;;;;;;4964013;28;20827;-82
2022/01/07 00:11:33;;;;;;;;;;;-0.70;99.90;;;;;;4964489;28;19930;-82
2022/01/07 00:14:00;;;;;;;;;;;-0.70;99.90;;;;;;4965826;28;19925;-81
2022/01/07 00:16:26;;;;;;;;;;;-0.70;99.90;;;;;;4968922;28;20515;-83
2022/01/07 00:18:53;;;;;;;;;;;-0.70;99.90;;;;;;4960286;28;20018;-82
2022/01/07 00:21:21;;;;;;;;;;;-0.70;99.90;;;;;;4958941;28;19940;-82
2022/01/07 00:23:47;;;;;;;;;;;-0.70;99.90;;;;;;4942628;28;19985;-82
2022/01/07 00:26:14;;;;;;;;;;;-0.70;99.90;;;;;;4945621;28;19930;-83
2022/01/07 00:28:41;;;;;;;;;;;-0.60;99.90;;;;;;4939573;28;19930;-83
2022/01/07 00:31:08;;;;;;;;;;;-0.60;99.90;;;;;;4958167;28;19931;-81
2022/01/07 00:33:35;;;;;;;;;;;-0.60;99.90;;;;;;4946049;28;19930;-82
2022/01/07 00:36:03;;;;;;;;;;;-0.70;99.90;;;;;;4958596;28;19930;-81
2022/01/07 00:38:30;;;;;;;;;;;-0.60;99.90;;;;;;4964887;28;19976;-81
2022/01/07 00:40:57;;;;;;;;;;;-0.70;99.90;;;;;;4966149;28;20438;-81
2022/01/07 00:43:24;;;;;;;;;;;-0.70;99.90;;;;;;4968016;28;20286;-83
2022/01/07 00:45:51;;;;;;;;;;;-0.70;99.90;;;;;;4966330;28;19926;-83
2022/01/07 00:48:18;;;;;;;;;;;-0.70;99.90;;;;;;4956577;28;19922;-82
2022/01/07 00:50:44;;;;;;;;;;;-0.70;99.90;;;;;;4963754;28;19930;-82
2022/01/07 00:53:11;;;;;;;;;;;-0.60;99.90;;;;;;4966340;28;20020;-82
2022/01/07 00:55:38;;;;;;;;;;;-0.60;99.90;;;;;;4960096;28;20030;-81
2022/01/07 00:58:05;;;;;;;;;;;-0.60;99.90;;;;;;4972070;28;19942;-82
2022/01/07 01:00:32;;;;;;;;;;;-0.60;99.90;;;;;;4970942;28;19934;-82
2022/01/07 01:02:59;;;;;;;;;;;-0.50;99.90;;;;;;4980106;28;19937;-82
2022/01/07 01:05:27;;;;;;;;;;;-0.50;99.90;;;;;;4978544;28;20025;-81
2022/01/07 01:07:53;;;;;;;;;;;-0.60;99.90;;;;;;4967105;28;19961;-82
2022/01/07 01:10:22;;;;;;;;;;;-0.60;99.90;;;;;;4978914;28;19941;-82
2022/01/07 01:12:49;;;;;;;;;;;-0.60;99.90;;;;;;4960810;28;19922;-82
2022/01/07 01:15:20;;;;;;;;;;;-0.60;99.90;;;;;;4978644;28;20008;-82
2022/01/07 01:17:48;;;;;;;;;;;-0.60;99.90;;;;;;4980669;28;19922;-82
2022/01/07 01:20:15;;;;;;;;;;;-0.60;99.90;;;;;;4962872;28;19930;-82
2022/01/07 01:22:42;;;;;;;;;;;-0.60;99.90;;;;;;4978213;28;19922;-82
2022/01/07 01:25:09;;;;;;;;;;;-0.60;99.90;;;;;;4963307;28;20002;-82
2022/01/07 01:27:36;;;;;;;;;;;-0.60;99.90;;;;;;4961925;28;19973;-82
2022/01/07 01:30:06;;;;;;;;;;;-0.60;99.90;;;;;;4961097;28;19926;-82
2022/01/07 01:32:33;;;;;;;;;;;-0.70;99.90;;;;;;4961516;28;19926;-82
2022/01/07 01:35:00;;;;;;;;;;;-0.70;99.90;;;;;;4972177;28;19969;-82
2022/01/07 01:37:29;;;;;;;;;;;-0.70;99.90;;;;;;4953231;28;19929;-81
2022/01/07 01:39:56;;;;;;;;;;;-0.80;99.90;;;;;;4944644;28;19927;-81
2022/01/07 01:42:23;;;;;;;;;;;-0.80;99.90;;;;;;4940659;28;19941;-83
2022/01/07 01:44:50;;;;;;;;;;;-0.80;99.90;;;;;;4945078;28;19952;-81
2022/01/07 01:47:22;;;;;;;;;;;-0.80;99.90;;;;;;4677705;28;10000212;-81
2022/01/07 01:49:49;;;;;;;;;;;-0.80;99.90;;;;;;1367511;28;10002011;-81
2022/01/07 01:52:16;;;;;;;;;;;-0.80;99.90;;;;;;4964854;28;20236;-82
2022/01/07 01:54:43;;;;;;;;;;;-0.80;99.90;;;;;;4941763;28;19933;-82
2022/01/07 01:57:11;;;;;;;;;;;-0.80;99.90;;;;;;4949276;28;19970;-81
2022/01/07 01:59:38;;;;;;;;;;;-0.90;99.90;;;;;;4941376;28;19958;-82
2022/01/07 02:02:05;;;;;;;;;;;-0.90;99.90;;;;;;4946805;28;19922;-82
2022/01/07 02:04:33;;;;;;;;;;;-0.90;99.90;;;;;;4942052;28;19926;-82
2022/01/07 02:07:00;;;;;;;;;;;-0.90;99.90;;;;;;4945926;28;19933;-82
2022/01/07 02:09:34;;;;;;;;;;;-0.90;99.90;;;;;;4945238;28;19984;-82
2022/01/07 02:12:06;;;;;;;;;;;-1.00;99.90;;;;;;4939225;28;19931;-82
2022/01/07 02:14:34;;;;;;;;;;;-1.00;99.90;;;;;;4942491;28;19938;-82
2022/01/07 02:17:05;;;;;;;;;;;-1.00;99.90;;;;;;4930031;29;19962;-82
2022/01/07 02:19:32;;;;;;;;;;;-1.00;99.90;;;;;;4961046;28;19923;-82
2022/01/07 02:21:59;;;;;;;;;;;-1.10;99.90;;;;;;4941414;28;20002;-82
2022/01/07 02:24:26;;;;;;;;;;;-1.00;99.90;;;;;;4947629;28;20456;-82
2022/01/07 02:26:53;;;;;;;;;;;-1.10;99.90;;;;;;4944524;28;19939;-82
2022/01/07 02:29:20;;;;;;;;;;;-1.10;99.90;;;;;;4949639;28;20349;-82
2022/01/07 02:31:47;;;;;;;;;;;-1.10;99.90;;;;;;4960017;28;19953;-82
2022/01/07 02:34:14;;;;;;;;;;;-1.10;99.90;;;;;;4967399;28;19929;-82
2022/01/07 02:36:41;;;;;;;;;;;-1.10;99.90;;;;;;4966615;28;20066;-81
2022/01/07 02:39:08;;;;;;;;;;;-1.10;99.90;;;;;;4975197;28;20351;-81
2022/01/07 02:41:35;;;;;;;;;;;-1.10;99.90;;;;;;4974669;28;19978;-80
2022/01/07 02:44:02;;;;;;;;;;;-1.10;99.90;;;;;;4969794;28;19932;-80
2022/01/07 02:46:29;;;;;;;;;;;-1.10;99.90;;;;;;4967472;28;20013;-80
2022/01/07 02:48:57;;;;;;;;;;;-1.10;99.90;;;;;;4984422;28;20490;-81
2022/01/07 02:51:24;;;;;;;;;;;-1.10;99.90;;;;;;4967004;28;19984;-81
2022/01/07 02:53:50;;;;;;;;;;;-1.10;99.90;;;;;;4968138;28;19958;-81
2022/01/07 02:56:18;;;;;;;;;;;-1.10;99.90;;;;;;4966664;28;19930;-81
2022/01/07 02:58:45;;;;;;;;;;;-1.10;99.90;;;;;;4967574;28;20561;-81
2022/01/07 03:01:12;;;;;;;;;;;-1.10;99.90;;;;;;4969759;28;19958;-81
2022/01/07 03:03:39;;;;;;;;;;;-1.10;99.90;;;;;;4967739;28;20005;-80
2022/01/07 03:06:06;;;;;;;;;;;-1.10;99.90;;;;;;4981865;28;19929;-80
2022/01/07 03:08:33;;;;;;;;;;;-1.10;99.90;;;;;;4968213;28;19938;-81
2022/01/07 03:11:00;;;;;;;;;;;-1.10;99.90;;;;;;4968994;28;20075;-81
2022/01/07 03:13:27;;;;;;;;;;;-1.10;99.90;;;;;;4968055;28;20095;-81
2022/01/07 03:15:54;;;;;;;;;;;-1.20;99.90;;;;;;4965680;28;19961;-81
2022/01/07 03:18:21;;;;;;;;;;;-1.10;99.90;;;;;;4967478;28;19934;-81
2022/01/07 03:20:48;;;;;;;;;;;-1.10;99.90;;;;;;4962749;28;20227;-81
2022/01/07 03:23:15;;;;;;;;;;;-1.10;99.90;;;;;;4966315;28;19926;-81
2022/01/07 03:25:44;;;;;;;;;;;-1.10;99.90;;;;;;4969957;28;19930;-81
2022/01/07 03:28:11;;;;;;;;;;;-1.10;99.90;;;;;;4963773;28;20564;-81
2022/01/07 03:30:38;;;;;;;;;;;-1.10;99.90;;;;;;4966944;28;20288;-81
2022/01/07 03:33:06;;;;;;;;;;;-1.10;99.90;;;;;;4963489;28;20049;-81
2022/01/07 03:35:33;;;;;;;;;;;-1.20;99.90;;;;;;4969440;28;20555;-81
2022/01/07 03:38:00;;;;;;;;;;;-1.10;99.90;;;;;;4967210;28;20500;-81
2022/01/07 03:40:27;;;;;;;;;;;-1.10;99.90;;;;;;4966358;28;20287;-81
2022/01/07 03:42:54;;;;;;;;;;;-1.20;99.90;;;;;;4965950;28;19929;-81
2022/01/07 03:45:21;;;;;;;;;;;-1.10;99.90;;;;;;4964889;28;20000;-81
2022/01/07 03:48:01;;;;;;;;;;;-1.20;99.90;;;;;;4275705;28;10000319;-81
2022/01/07 03:50:28;;;;;;;;;;;-1.10;99.90;;;;;;2385142;28;10002074;-81
2022/01/07 03:52:56;;;;;;;;;;;-1.10;99.90;;;;;;4947564;28;19922;-81
2022/01/07 03:55:24;;;;;;;;;;;-1.10;99.90;;;;;;4952705;28;19973;-81
2022/01/07 03:57:51;;;;;;;;;;;-1.00;99.90;;;;;;4950812;28;19961;-81
2022/01/07 04:00:32;;;;;;;;;;;-1.10;99.90;;;;;;4957803;28;20008;-81
2022/01/07 04:03:03;;;;;;;;;;;-1.00;99.90;;;;;;4946787;28;19941;-81
2022/01/07 04:05:30;;;;;;;;;;;-1.10;99.90;;;;;;4944728;28;19960;-81
2022/01/07 04:07:57;;;;;;;;;;;-1.10;99.90;;;;;;4947632;28;19981;-81
2022/01/07 04:10:24;;;;;;;;;;;-1.10;99.90;;;;;;4978891;28;19926;-80
2022/01/07 04:12:51;;;;;;;;;;;-1.10;99.90;;;;;;4963533;28;19994;-81
2022/01/07 04:15:21;;;;;;;;;;;-1.00;99.90;;;;;;4969662;28;19933;-81
2022/01/07 04:17:50;;;;;;;;;;;-1.00;99.90;;;;;;4965975;28;19926;-81
2022/01/07 04:20:22;;;;;;;;;;;-1.00;99.90;;;;;;4967864;28;19945;-81
2022/01/07 04:22:48;;;;;;;;;;;-1.10;99.90;;;;;;4967549;28;19930;-81
2022/01/07 04:25:20;;;;;;;;;;;-1.00;99.90;;;;;;4965713;28;20008;-81
2022/01/07 04:27:48;;;;;;;;;;;-1.00;99.90;;;;;;4966236;28;19930;-81
2022/01/07 04:30:16;;;;;;;;;;;-1.10;99.90;;;;;;4981902;28;20335;-81
2022/01/07 04:32:43;;;;;;;;;;;-1.10;99.90;;;;;;4964658;28;19926;-81
2022/01/07 04:35:11;;;;;;;;;;;-1.00;99.90;;;;;;4959571;28;19926;-81
2022/01/07 04:37:39;;;;;;;;;;;-1.00;99.90;;;;;;4965872;28;20394;-81
2022/01/07 04:40:06;;;;;;;;;;;-1.00;99.90;;;;;;4981712;28;19922;-81
2022/01/07 04:42:33;;;;;;;;;;;-1.00;99.90;;;;;;4980243;28;19949;-81
2022/01/07 04:45:02;;;;;;;;;;;-1.00;99.90;;;;;;4967907;28;19980;-81
2022/01/07 04:47:29;;;;;;;;;;;-1.00;99.90;;;;;;4965741;28;19961;-81
2022/01/07 04:49:56;;;;;;;;;;;-1.00;99.90;;;;;;4976600;28;19923;-82
2022/01/07 04:52:22;;;;;;;;;;;-1.00;99.90;;;;;;4967565;28;19945;-81
2022/01/07 04:54:49;;;;;;;;;;;-1.00;99.90;;;;;;4962419;28;20329;-81
2022/01/07 04:57:16;;;;;;;;;;;-1.10;99.90;;;;;;4966451;28;19926;-81
2022/01/07 04:59:43;;;;;;;;;;;-1.10;99.90;;;;;;4963155;28;20655;-81
2022/01/07 05:02:10;;;;;;;;;;;-1.10;99.90;;;;;;4966019;28;20375;-81
2022/01/07 05:04:37;;;;;;;;;;;-1.10;99.90;;;;;;4966707;28;19925;-81
2022/01/07 05:07:03;;;;;;;;;;;-1.10;99.90;;;;;;4981958;28;19926;-81
2022/01/07 05:09:30;;;;;;;;;;;-1.10;99.90;;;;;;4979512;28;20414;-81
2022/01/07 05:11:57;;;;;;;;;;;-1.10;99.90;;;;;;4944820;28;19932;-80
2022/01/07 05:14:24;;;;;;;;;;;-1.30;99.90;;;;;;4966540;28;19987;-80
2022/01/07 05:16:51;;;;;;;;;;;-1.50;99.90;;;;;;4967723;28;19926;-80
2022/01/07 05:19:18;;;;;;;;;;;-1.60;99.90;;;;;;4966302;28;19972;-80
2022/01/07 05:21:45;;;;;;;;;;;-1.80;99.90;;;;;;4967491;28;19922;-80
2022/01/07 05:24:11;;;;;;;;;;;-2.00;99.90;;;;;;4964775;28;20295;-80
2022/01/07 05:26:38;;;;;;;;;;;-2.10;99.90;;;;;;4965443;28;19933;-80
2022/01/07 05:29:05;;;;;;;;;;;-2.20;99.90;;;;;;4982205;28;19949;-81
2022/01/07 05:31:32;;;;;;;;;;;-2.40;99.90;;;;;;4968336;28;20271;-81
2022/01/07 05:33:59;;;;;;;;;;;-2.40;99.90;;;;;;4966176;28;19930;-81
2022/01/07 05:36:26;;;;;;;;;;;-2.50;99.90;;;;;;4967504;28;19933;-81
2022/01/07 05:38:53;;;;;;;;;;;-2.60;99.90;;;;;;4963337;28;19942;-81
2022/01/07 05:41:20;;;;;;;;;;;-2.70;99.90;;;;;;4965455;28;19926;-81
2022/01/07 05:43:47;;;;;;;;;;;-2.70;99.90;;;;;;4964745;28;20032;-81
2022/01/07 05:46:15;;;;;;;;;;;-2.80;99.90;;;;;;4882898;28;20562;-82
2022/01/07 05:48:43;;;;;;;;;;;-2.90;99.90;;;;;;326439;28;10023015;-82
2022/01/07 05:51:10;;;;;;;;;;;-3.00;99.90;;;;;;4961551;28;19953;-82
2022/01/07 05:53:37;;;;;;;;;;;-3.00;99.90;;;;;;4944567;28;19926;-82
2022/01/07 05:56:04;;;;;;;;;;;-3.10;99.90;;;;;;4947543;28;20122;-82
2022/01/07 05:58:31;;;;;;;;;;;-3.20;99.90;;;;;;4961551;28;19922;-82
2022/01/07 06:00:58;;;;;;;;;;;-3.20;99.90;;;;;;4962886;28;19977;-82
2022/01/07 06:03:25;;;;;;;;;;;-3.30;99.90;;;;;;4984414;28;20241;-82
2022/01/07 06:05:52;;;;;;;;;;;-3.40;99.90;;;;;;4957880;28;19943;-82
2022/01/07 06:08:19;;;;;;;;;;;-3.40;99.90;;;;;;4979847;28;20307;-82
2022/01/07 06:10:46;;;;;;;;;;;-3.50;99.90;;;;;;4972204;28;19980;-82
2022/01/07 06:13:13;;;;;;;;;;;-3.60;99.90;;;;;;4983313;28;19954;-82
2022/01/07 06:15:40;;;;;;;;;;;-3.60;99.90;;;;;;4963339;28;19922;-82
2022/01/07 06:18:07;;;;;;;;;;;-3.70;99.90;;;;;;4969069;28;19933;-82
2022/01/07 06:20:34;;;;;;;;;;;-3.80;99.90;;;;;;4966280;28;19922;-82
2022/01/07 06:23:00;;;;;;;;;;;-3.80;99.90;;;;;;4971233;28;19934;-82
2022/01/07 06:25:27;;;;;;;;;;;-3.90;99.90;;;;;;4972316;28;19929;-82
2022/01/07 06:27:54;;;;;;;;;;;-3.90;99.90;;;;;;4970819;28;20002;-82
2022/01/07 06:30:21;;;;;;;;;;;-4.00;99.90;;;;;;4970542;28;19922;-82
2022/01/07 06:32:48;;;;;;;;;;;-4.10;99.90;;;;;;4966744;28;19929;-82
2022/01/07 06:35:16;;;;;;;;;;;-4.10;99.90;;;;;;4969016;28;20242;-82
2022/01/07 06:37:43;;;;;;;;;;;-4.20;99.90;;;;;;4983867;28;19948;-82
2022/01/07 06:40:10;;;;;;;;;;;-4.30;99.90;;;;;;4967411;28;19957;-82
2022/01/07 06:42:37;;;;;;;;;;;-4.30;99.90;;;;;;4956137;28;20378;-82
2022/01/07 06:45:05;;;;;;;;;;;-4.40;99.90;;;;;;4969351;28;20430;-82
2022/01/07 06:47:33;;;;;;;;;;;-4.50;99.90;;;;;;4971064;28;19953;-82
2022/01/07 06:49:59;;;;;;;;;;;-4.50;99.90;;;;;;4950359;28;19921;-82
2022/01/07 06:52:27;;;;;;;;;;;-4.50;99.90;;;;;;4982434;28;19929;-82
2022/01/07 06:54:53;;;;;;;;;;;-4.50;99.90;;;;;;4967658;28;19922;-82
2022/01/07 06:57:20;;;;;;;;;;;-4.50;99.90;;;;;;4970574;28;19929;-81
2022/01/07 06:59:47;;;;;;;;;;;-4.60;99.90;;;;;;4951333;28;19956;-81
2022/01/07 07:02:14;;;;;;;;;;;-4.60;99.90;;;;;;4986143;28;19933;-81
2022/01/07 07:04:41;;;;;;;;;;;-4.70;99.90;;;;;;4968206;28;19937;-81
2022/01/07 07:07:08;;;;;;;;;;;-4.70;99.90;;;;;;4983797;28;19926;-82
2022/01/07 07:09:35;;;;;;;;;;;-4.70;99.90;;;;;;4983632;28;19922;-82
2022/01/07 07:12:02;;;;;;;;;;;-4.80;99.90;;;;;;4969364;28;19945;-82
2022/01/07 07:14:29;;;;;;;;;;;-4.80;99.90;;;;;;4967508;28;19976;-82
2022/01/07 07:16:56;;;;;;;;;;;-4.90;99.90;;;;;;4968946;28;20199;-81
2022/01/07 07:19:24;;;;;;;;;;;-5.00;99.90;;;;;;4968880;28;19981;-81
2022/01/07 07:21:51;;;;;;;;;;;-5.00;99.90;;;;;;4982938;28;19933;-81
2022/01/07 07:24:17;;;;;;;;;;;-5.00;99.90;;;;;;4970062;28;19922;-81
2022/01/07 07:26:44;;;;;;;;;;;-5.00;99.90;;;;;;4963868;28;19933;-81
2022/01/07 07:29:11;;;;;;;;;;;-5.00;99.90;;;;;;4967973;28;20045;-82
2022/01/07 07:31:41;;;;;;;;;;;-5.00;99.90;;;;;;4958803;28;20357;-82
2022/01/07 07:36:53;;;;;;;;;;;-5.10;99.90;;;;;;4960344;28;20360;-82
2022/01/07 07:39:20;;;;;;;;;;;-5.00;99.90;;;;;;4972592;28;19984;-82
2022/01/07 07:41:48;;;;;;;;;;;-5.10;99.90;;;;;;4960420;28;19938;-82
2022/01/07 07:44:15;;;;;;;;;;;-5.00;99.90;;;;;;4960391;28;19922;-82
2022/01/07 07:46:42;;;;;;;;;;;-5.10;99.90;;;;;;4959906;28;20091;-82
2022/01/07 07:49:09;;;;;;;;;;;-5.10;99.90;;;;;;4958529;28;19941;-82
2022/01/07 07:51:55;;;;;;;;;;;-5.10;99.90;;;;;;4128518;28;10000076;-82
2022/01/07 07:54:22;;;;;;;;;;;-5.10;99.90;;;;;;2398257;28;10001976;-81
2022/01/07 07:56:49;;;;;;;;;;;-5.10;99.90;;;;;;4962467;28;19934;-81
2022/01/07 07:59:16;;;;;;;;;;;-5.10;99.90;;;;;;4952255;28;20387;-81
2022/01/07 08:01:42;;;;;;;;;;;-5.10;99.90;;;;;;4964541;28;20022;-81
2022/01/07 08:04:11;;;;;;;;;;;-5.10;99.90;;;;;;4964312;28;19930;-81
2022/01/07 08:06:37;;;;;;;;;;;-5.00;99.90;;;;;;4962660;28;19922;-81
2022/01/07 08:09:04;;;;;;;;;;;-5.00;99.90;;;;;;4964613;28;19925;-82
2022/01/07 08:11:38;;;;;;;;;;;-5.00;99.90;;;;;;4979694;28;20009;-82
2022/01/07 08:16:55;;;;;;;;;;;-5.00;99.90;;;;;;4964435;28;19921;-82
2022/01/07 08:19:21;;;;;;;;;;;-5.00;99.90;;;;;;4967848;28;19932;-82
2022/01/07 08:21:48;;;;;;;;;;;-5.00;99.90;;;;;;4987033;28;19929;-82
2022/01/07 08:24:15;;;;;;;;;;;-5.00;99.90;;;;;;4966576;28;20342;-82
2022/01/07 08:26:46;;;;;;;;;;;-5.00;99.90;;;;;;4978628;28;19930;-82
2022/01/07 08:29:15;;;;;;;;;;;-4.90;99.90;;;;;;4968069;28;19932;-82
2022/01/07 08:36:54;;;;;;;;;;;-4.80;99.90;;;;;;4963860;28;19941;-81
2022/01/07 08:39:21;;;;;;;;;;;-4.70;99.90;;;;;;4966632;28;19929;-81
2022/01/07 08:41:48;;;;;;;;;;;-4.70;99.90;;;;;;4965670;28;19929;-82
2022/01/07 08:44:15;;;;;;;;;;;-4.60;99.90;;;;;;4966555;28;19922;-82
2022/01/07 08:46:43;;;;;;;;;;;-4.60;99.90;;;;;;4964846;28;19933;-82
2022/01/07 08:49:10;;;;;;;;;;;-4.50;99.90;;;;;;4982220;28;19935;-82
2022/01/07 08:51:37;;;;;;;;;;;-4.40;99.90;;;;;;4976122;28;20296;-82
2022/01/07 08:54:03;;;;;;;;;;;-4.40;99.90;;;;;;4968201;28;20037;-83
2022/01/07 08:56:32;;;;;;;;;;;-4.30;99.90;;;;;;4974711;28;19923;-82
2022/01/07 08:59:00;;;;;;;;;;;-4.20;99.90;;;;;;4965061;28;19948;-83
2022/01/07 09:01:28;;;;;;;;;;;-4.10;99.90;;;;;;4967656;28;19926;-83
2022/01/07 09:03:56;;;;;;;;;;;-4.10;99.90;;;;;;4962504;28;20646;-83
2022/01/07 09:06:22;;;;;;;;;;;-4.10;99.90;;;;;;4966558;28;19926;-83
2022/01/07 09:08:50;;;;;;;;;;;-4.00;99.90;;;;;;4981632;28;20338;-83
2022/01/07 09:11:16;;;;;;;;;;;-3.90;99.90;;;;;;4966896;28;19969;-83
2022/01/07 09:13:45;;;;;;;;;;;-3.80;99.90;;;;;;4966625;28;19929;-83
2022/01/07 09:16:12;;;;;;;;;;;-3.70;99.90;;;;;;4966204;28;20414;-83
2022/01/07 09:18:39;;;;;;;;;;;-3.70;99.90;;;;;;4961512;28;19980;-83
2022/01/07 09:21:09;;;;;;;;;;;-3.60;99.90;;;;;;4968095;28;19922;-83
2022/01/07 09:23:40;;;;;;;;;;;-3.50;99.90;;;;;;4966072;28;19922;-83
2022/01/07 09:26:08;;;;;;;;;;;-3.50;99.90;;;;;;4967040;28;20379;-82
2022/01/07 09:28:35;;;;;;;;;;;-3.40;99.90;;;;;;4978479;28;19926;-82
2022/01/07 09:31:03;;;;;;;;;;;-3.30;99.90;;;;;;4968451;28;20020;-82
2022/01/07 09:33:30;;;;;;;;;;;-3.30;99.90;;;;;;4966152;28;20016;-82
2022/01/07 09:36:17;;;;;;;;;;;-3.20;99.90;;;;;;4969756;28;19926;-82
2022/01/07 09:38:43;;;;;;;;;;;-3.10;99.90;;;;;;4986830;28;19922;-82
2022/01/07 09:41:10;;;;;;;;;;;-3.00;99.90;;;;;;4970864;28;19922;-82
2022/01/07 09:43:37;;;;;;;;;;;-2.90;99.90;;;;;;4988165;28;19961;-83
2022/01/07 09:46:04;;;;;;;;;;;-2.90;99.90;;;;;;4972222;28;20002;-83
2022/01/07 09:48:38;;;;;;;;;;;-2.80;99.90;;;;;;3743280;28;10020011;-83
2022/01/07 09:51:05;;;;;;;;;;;-2.70;99.90;;;;;;2397390;28;10001841;-83
2022/01/07 09:53:31;;;;;;;;;;;-2.70;99.90;;;;;;4971694;28;19921;-83
2022/01/07 09:56:00;;;;;;;;;;;-2.60;99.90;;;;;;4972819;28;20425;-82
2022/01/07 09:58:27;;;;;;;;;;;-2.50;99.90;;;;;;4977307;28;20372;-82
2022/01/07 10:00:59;;;;;;;;;;;-2.40;99.90;;;;;;4971618;28;19922;-82
2022/01/07 10:03:34;;;;;;;;;;;-2.40;99.90;;;;;;4969819;28;20014;-82
2022/01/07 10:06:01;;;;;;;;;;;-2.30;99.90;;;;;;4973152;28;19936;-82
2022/01/07 10:08:29;;;;;;;;;;;-2.20;99.90;;;;;;4969105;28;19922;-81
2022/01/07 10:11:09;;;;;;;;;;;-2.10;99.90;;;;;;4973598;28;19922;-80
2022/01/07 10:13:36;;;;;;;;;;;-2.00;99.90;;;;;;4970566;28;19926;-80
2022/01/07 10:16:20;;;;;;;;;;;-1.90;99.90;;;;;;4971136;28;20020;-80
2022/01/07 10:18:51;;;;;;;;;;;-1.90;99.90;;;;;;4970382;28;20615;-82
2022/01/07 10:21:19;;;;;;;;;;;-1.80;99.90;;;;;;4986523;28;20001;-83
2022/01/07 10:23:46;;;;;;;;;;;-1.70;99.90;;;;;;4972450;28;19997;-83
2022/01/07 10:26:15;;;;;;;;;;;-1.60;99.90;;;;;;4986228;28;20372;-83
2022/01/07 10:28:42;;;;;;;;;;;-1.60;99.90;;;;;;4971395;28;20346;-81
2022/01/07 10:31:09;;;;;;;;;;;-1.50;99.90;;;;;;4972872;28;19922;-81
2022/01/07 10:33:37;;;;;;;;;;;-1.40;99.90;;;;;;4971248;28;19922;-81
2022/01/07 10:36:07;;;;;;;;;;;-1.40;99.90;;;;;;4984373;28;19957;-81
2022/01/07 10:38:35;;;;;;;;;;;-1.30;99.90;;;;;;4973417;28;19925;-81
2022/01/07 10:41:02;;;;;;;;;;;-1.20;99.90;;;;;;4987332;28;19930;-81
2022/01/07 10:43:35;;;;;;;;;;;-1.20;99.90;;;;;;4971202;28;20567;-80
2022/01/07 10:46:08;;;;;;;;;;;-1.10;99.90;;;;;;4972869;28;19944;-80
2022/01/07 10:48:43;;;;;;;;;;;-1.10;99.90;;;;;;4982970;28;20021;-80
2022/01/07 10:51:12;;;;;;;;;;;-1.00;99.90;;;;;;4983355;28;19981;-81
2022/01/07 10:53:40;;;;;;;;;;;-1.00;99.90;;;;;;4966088;28;20036;-81
2022/01/07 10:56:10;;;;;;;;;;;-1.00;99.90;;;;;;4969145;28;19930;-81
2022/01/07 10:58:43;;;;;;;;;;;-1.00;99.90;;;;;;4961521;28;19926;-81
2022/01/07 11:01:19;;;;;;;;;;;-1.00;99.90;;;;;;4980412;28;20295;-80
2022/01/07 11:03:47;;;;;;;;;;;-0.90;99.90;;;;;;4982304;28;19937;-80
2022/01/07 11:06:14;;;;;;;;;;;-0.90;99.90;;;;;;4962221;28;19970;-80
2022/01/07 11:08:41;;;;;;;;;;;-0.90;99.90;;;;;;4966184;28;20506;-80
2022/01/07 11:11:09;;;;;;;;;;;-0.90;99.90;;;;;;4967966;28;19965;-82
2022/01/07 11:13:36;;;;;;;;;;;-0.80;99.90;;;;;;4978956;28;19948;-82
2022/01/07 11:16:03;;;;;;;;;;;-0.80;99.90;;;;;;4966163;28;20511;-82
2022/01/07 11:18:31;;;;;;;;;;;-0.70;99.90;;;;;;4965740;28;20012;-82
2022/01/07 11:20:58;;;;;;;;;;;-0.70;99.90;;;;;;4968837;28;19989;-82
2022/01/07 11:23:25;;;;;;;;;;;-0.70;99.90;;;;;;4968114;28;19937;-82
2022/01/07 11:25:59;;;;;;;;;;;-0.70;99.90;;;;;;4968408;28;20291;-82
2022/01/07 11:28:26;;;;;;;;;;;-0.60;99.90;;;;;;4979376;28;19933;-82
2022/01/07 11:31:05;;;;;;;;;;;-0.60;99.90;;;;;;4959496;28;20303;-82
2022/01/07 11:33:32;;;;;;;;;;;-0.60;99.90;;;;;;4966655;28;20287;-82
2022/01/07 11:35:59;;;;;;;;;;;-0.50;99.90;;;;;;4967744;28;19922;-82
2022/01/07 11:38:38;;;;;;;;;;;-0.50;99.90;;;;;;4966517;28;19922;-82
2022/01/07 11:41:09;;;;;;;;;;;-0.40;99.90;;;;;;4964795;28;19926;-82
2022/01/07 11:43:39;;;;;;;;;;;-0.40;99.90;;;;;;4965527;28;19961;-82
2022/01/07 11:46:23;;;;;;;;;;;-0.40;99.90;;;;;;4967409;28;19929;-80
2022/01/07 11:49:03;;;;;;;;;;;-0.40;99.90;;;;;;3937723;28;10000668;-80
2022/01/07 11:51:37;;;;;;;;;;;-0.30;99.90;;;;;;1710699;28;10001996;-80
2022/01/07 11:54:05;;;;;;;;;;;-0.30;99.90;;;;;;4966634;28;20320;-80
2022/01/07 11:56:32;;;;;;;;;;;-0.30;99.90;;;;;;4965526;28;19929;-80
2022/01/07 11:59:10;;;;;;;;;;;-0.30;99.90;;;;;;4964749;28;19945;-81
2022/01/07 12:01:39;;;;;;;;;;;-0.30;99.90;;;;;;4962746;28;20380;-81
2022/01/07 12:04:12;;;;;;;;;;;-0.30;99.90;;;;;;4966184;28;20032;-82
2022/01/07 12:06:39;;;;;;;;;;;-0.30;99.90;;;;;;4980213;28;19933;-80
2022/01/07 12:09:27;;;;;;;;;;;-0.20;99.90;;;;;;4982699;28;19929;-81
2022/01/07 12:11:55;;;;;;;;;;;-0.20;99.90;;;;;;4968937;28;19926;-81
2022/01/07 12:14:23;;;;;;;;;;;-0.10;99.90;;;;;;4964159;28;19937;-80
2022/01/07 12:16:55;;;;;;;;;;;-0.20;99.90;;;;;;4976779;28;19922;-80
2022/01/07 12:19:26;;;;;;;;;;;-0.10;99.90;;;;;;4963613;28;22147;-82
2022/01/07 12:21:53;;;;;;;;;;;-0.10;99.90;;;;;;4966630;28;19953;-80
2022/01/07 12:24:22;;;;;;;;;;;-0.10;99.90;;;;;;4967214;28;19926;-81
2022/01/07 12:27:01;;;;;;;;;;;-0.10;99.90;;;;;;4966985;28;19926;-85
2022/01/07 12:29:30;;;;;;;;;;;-0.10;99.90;;;;;;4966532;28;19930;-83
2022/01/07 12:31:57;;;;;;;;;;;-0.10;99.90;;;;;;4967911;28;19926;-83
2022/01/07 12:34:28;;;;;;;;;;;-0.10;99.90;;;;;;4966775;28;19930;-83
2022/01/07 12:36:55;;;;;;;;;;;-0.10;99.90;;;;;;4964970;28;19926;-83
2022/01/07 12:39:27;;;;;;;;;;;-0.10;99.90;;;;;;4979808;28;20403;-83
2022/01/07 12:41:54;;;;;;;;;;;-0.10;99.90;;;;;;4966478;28;19930;-83
2022/01/07 12:44:22;;;;;;;;;;;0.00;99.90;;;;;;4967811;28;19976;-82
2022/01/07 12:46:56;;;;;;;;;;;0.00;99.90;;;;;;4982213;28;19975;-82
2022/01/07 12:49:40;;;;;;;;;;;0.00;99.90;;;;;;4966416;28;20025;-82
2022/01/07 12:52:08;;;;;;;;;;;0.00;99.90;;;;;;4964945;28;19941;-82
2022/01/07 12:54:35;;;;;;;;;;;0.00;99.90;;;;;;4957657;28;20000;-82
2022/01/07 12:57:02;;;;;;;;;;;-0.10;99.90;;;;;;4958961;28;20402;-83
2022/01/07 12:59:29;;;;;;;;;;;0.00;99.90;;;;;;4964353;28;19926;-83
2022/01/07 13:01:56;;;;;;;;;;;0.00;99.90;;;;;;4963910;28;19992;-85
2022/01/07 13:04:25;;;;;;;;;;;0.00;99.90;;;;;;4981127;28;20043;-85
2022/01/07 13:06:53;;;;;;;;;;;0.00;99.90;;;;;;4973447;28;19930;-85
2022/01/07 13:09:24;;;;;;;;;;;0.00;99.90;;;;;;4948659;28;20218;-84
2022/01/07 13:11:52;;;;;;;;;;;0.00;99.90;;;;;;4952050;28;19922;-84
2022/01/07 13:14:20;;;;;;;;;;;-0.10;99.90;;;;;;4978137;28;19969;-82
2022/01/07 13:16:51;;;;;;;;;;;-0.10;99.90;;;;;;4977447;28;19988;-86
2022/01/07 13:19:18;;;;;;;;;;;0.00;99.90;;;;;;4961049;28;19930;-86
2022/01/07 13:21:46;;;;;;;;;;;0.00;99.90;;;;;;4961768;28;19930;-84
2022/01/07 13:24:14;;;;;;;;;;;0.00;99.90;;;;;;4962556;28;19936;-85
2022/01/07 13:26:41;;;;;;;;;;;0.00;99.90;;;;;;4963936;28;19922;-85
2022/01/07 13:29:20;;;;;;;;;;;0.00;99.90;;;;;;4966646;28;19937;-85
2022/01/07 13:31:48;;;;;;;;;;;0.00;99.90;;;;;;4965628;28;19925;-85
2022/01/07 13:34:25;;;;;;;;;;;0.00;99.90;;;;;;4963541;28;19926;-85
2022/01/07 13:36:59;;;;;;;;;;;0.00;99.90;;;;;;4963906;28;19928;-85
2022/01/07 13:39:25;;;;;;;;;;;0.10;99.90;;;;;;4968246;28;20403;-85
2022/01/07 13:41:52;;;;;;;;;;;0.10;99.90;;;;;;4963666;28;20403;-85
2022/01/07 13:44:19;;;;;;;;;;;0.20;99.90;;;;;;4978717;28;19930;-85
2022/01/07 13:46:54;;;;;;;;;;;0.20;99.90;;;;;;4965635;28;19926;-85
2022/01/07 13:49:34;;;;;;;;;;;0.20;99.90;;;;;;2754643;28;10002120;-85
2022/01/07 13:52:04;;;;;;;;;;;0.20;99.90;;;;;;2909468;28;10001088;-85
2022/01/07 13:54:33;;;;;;;;;;;0.20;99.90;;;;;;4977893;28;19922;-83
2022/01/07 13:57:07;;;;;;;;;;;0.20;99.90;;;;;;4964379;28;20041;-83
2022/01/07 13:59:42;;;;;;;;;;;0.20;99.90;;;;;;4964647;28;19970;-83
2022/01/07 14:02:13;;;;;;;;;;;0.20;99.90;;;;;;4982398;28;19989;-83
2022/01/07 14:04:52;;;;;;;;;;;0.10;99.90;;;;;;4964728;28;20074;-83
2022/01/07 14:07:42;;;;;;;;;;;0.10;99.90;;;;;;4961792;28;20406;-83
2022/01/07 14:10:09;;;;;;;;;;;0.10;99.90;;;;;;4943883;28;19926;-84
2022/01/07 14:12:57;;;;;;;;;;;0.10;99.90;;;;;;4977494;28;20314;-83
2022/01/07 14:15:25;;;;;;;;;;;0.10;99.90;;;;;;4968902;28;19968;-84
2022/01/07 14:18:08;;;;;;;;;;;0.10;99.90;;;;;;4969736;28;20307;-84
2022/01/07 14:20:51;;;;;;;;;;;0.00;99.90;;;;;;4946745;28;19926;-83
2022/01/07 14:23:24;;;;;;;;;;;0.10;99.90;;;;;;4978100;28;20618;-83
2022/01/07 14:25:59;;;;;;;;;;;0.00;99.90;;;;;;4974460;28;19922;-83
2022/01/07 14:28:26;;;;;;;;;;;0.00;99.90;;;;;;4970502;28;19926;-83
2022/01/07 14:30:53;;;;;;;;;;;0.00;99.90;;;;;;4966174;28;19957;-83
2022/01/07 14:33:20;;;;;;;;;;;0.00;99.90;;;;;;4966082;28;19984;-83
2022/01/07 14:35:47;;;;;;;;;;;0.00;99.90;;;;;;4983256;28;19933;-83